Amiret, Minnesota
Current Conditions -  °F | °C
As of 7:12 PM on Tuesday 27 Jan 2015 (Local Time) from KTKC Reporting Station
Clear Clear  
Wind Chill: 27°   Ceiling: Unl
Heat Index: 35°   Visibility: 10mi
Dew Point: 33°   Wind: 12mph
Humidity: 92%   Direction: 160°SSE
Pressure: 30.01"   Gusts: 17mph
Location:  44.2253°N, 95.6512°W
Report Text: KTKC 280112Z AUTO 16010G15KT 10SM CLR 02/01 A3001 RMK AO2 T00180007
Loading
Personal Weather Stations






























Interactive Weather Map New forecast layout! Learn more

10-Day Weather Forecast

Advertisements
Track Severe Weather on mobile